• Join FlightAware (Why Join?)
  • Login
  • US Flag 
01:24AM EDT


 

Airport Tracker/Info


-or-


 

Live Flight TrackerFlight Track Log ✈ CCA4491 ✈ 26-Oct-2013 ✈ ZUUU / CTU - ZUJZ / JZH

Flight Track Log - Related Links

Times and Time Zones

All times are in EDT time to prevent confusion due to time zone crossing. See the CCA4491 flight status page for this flight to view local times or setup timezone preferences in your user account.

Time Position Orientation Groundspeed Altitude Reporting Facility
EDT Latitude Longitude Course Direction KTS MPH feet Rate Location/Type
11:42PM 30.6160 103.9640 21° North 151 174 4,100  Level FlightAware
11:42PM 30.6350 103.9730 22° Northeast 167 192 5,000 1,680 Climbing FlightAware
11:43PM 30.6610 103.9850 22° Northeast 207 238 5,800 1,680 Climbing FlightAware
11:44PM 30.6950 104.0010 22° Northeast 250 288 6,900 1,980 Climbing FlightAware
11:44PM 30.7270 104.0150 21° North 275 316 7,900 2,460 Climbing FlightAware
11:44PM 30.7490 104.0300 30° Northeast 282 325 8,900 2,820 Climbing FlightAware
11:45PM 30.8010 104.0760 37° Northeast 303 349 11,200 2,760 Climbing FlightAware
11:46PM 30.8380 104.1080 37° Northeast 316 364 12,700 2,760 Climbing FlightAware
11:46PM 30.8720 104.1370 36° Northeast 325 374 14,000 2,400 Climbing FlightAware
11:47PM 30.9430 104.1990 37° Northeast 350 403 16,200 1,740 Climbing FlightAware
11:48PM 31.0160 104.2630 37° Northeast 397 457 17,200 900 Climbing FlightAware
11:49PM 31.0870 104.3260 37° Northeast 400 460 17,700 900 Climbing FlightAware
11:49PM 31.1320 104.3640 36° Northeast 406 467 18,400 1,320 Climbing FlightAware
11:50PM 31.2360 104.4220 25° Northeast 421 484 19,700 900 Climbing FlightAware
11:51PM 31.2840 104.4330 11° North 414 476 19,700 600 Level FlightAware
11:52PM 31.3760 104.4280 357° North 416 479 20,500 1,440 Climbing FlightAware
11:53PM 31.4950 104.4220 358° North 429 494 22,400 1,620 Climbing FlightAware
11:53PM 31.6030 104.4160 357° North 434 499 23,600 720 Climbing FlightAware
11:54PM 31.6920 104.4120 358° North 439 505 23,600  Level FlightAware
11:55PM 31.7610 104.4080 357° North 439 505 23,600  Level FlightAware
11:55PM 31.8300 104.4050 358° North 442 509 23,600  Level FlightAware
11:56PM 31.9440 104.3990 357° North 440 506 23,600  Level FlightAware
11:57PM 32.0670 104.3930 358° North 441 507 23,600  Level FlightAware
11:58PM 32.1740 104.3870 357° North 443 510 23,600  Level FlightAware
11:59PM 32.2800 104.3770 355° North 439 505 23,600  Level FlightAware
12:00AM 32.3690 104.3350 338° Northwest 435 501 23,600  Level FlightAware
12:01AM 32.4780 104.2740 335° Northwest 430 495 23,600  Level FlightAware
12:02AM 32.5640 104.2200 332° Northwest 428 493 23,600  Level FlightAware
12:02AM 32.6350 104.1750 332° Northwest 428 493 23,600  Level FlightAware
12:03AM 32.7260 104.1180 332° Northwest 428 493 23,600  Level FlightAware
12:04AM 32.7970 104.0720 331° Northwest 428 493 23,600  Level FlightAware
12:07AM 32.8570 103.6830 281° West  Level Estimated
12:08AM 32.8570 103.6830 North  Level Estimated
12:09AM 32.8570 103.6830 North  Level Estimated
12:10AM 32.8570 103.6830 North  Level Estimated
12:11AM 32.8570 103.6830 North  Level Estimated